createdAt,value
2022-11-26T01:17:49.703Z,100717.91
2022-11-26T01:20:25.661Z,100716.13
2022-11-26T01:22:53.974Z,100716.13
2022-11-26T01:25:22.013Z,100714.31
2022-11-26T01:27:49.125Z,100710.88
2022-11-26T01:30:23.468Z,100707.31
2022-11-26T01:32:51.137Z,100687.91
2022-11-26T01:35:19.277Z,100707.31
2022-11-26T01:37:46.425Z,100705.63
2022-11-26T01:40:25.715Z,100705.50
2022-11-26T01:43:05.785Z,100702.03
2022-11-26T01:45:33.296Z,100697.84
2022-11-26T01:48:00.030Z,100707.41
2022-11-26T01:50:32.667Z,100714.44
2022-11-26T01:53:05.032Z,100717.81
2022-11-26T01:55:36.951Z,100716.13
2022-11-26T01:58:09.625Z,100719.47
2022-11-26T02:00:37.663Z,100710.88
2022-11-26T02:03:05.161Z,100707.31
2022-11-26T02:05:39.138Z,100707.31
2022-11-26T02:08:06.547Z,100706.44
2022-11-26T02:10:34.661Z,100709.19
2022-11-26T02:13:01.770Z,100711.69
2022-11-26T02:15:38.599Z,100716.00
2022-11-26T02:18:09.252Z,100715.19
2022-11-26T02:20:56.225Z,100726.62
2022-11-26T02:23:40.110Z,100722.19
2022-11-26T02:26:26.018Z,100736.19
2022-11-26T02:29:47.123Z,100733.56
2022-11-26T02:32:22.960Z,100735.44
2022-11-26T02:34:58.186Z,100735.56
2022-11-26T02:37:50.988Z,100747.84
2022-11-26T02:40:18.617Z,100747.12
2022-11-26T02:42:45.390Z,100748.06
2022-11-26T02:45:16.377Z,100741.97
2022-11-26T02:47:46.261Z,100755.22
2022-11-26T02:50:18.415Z,100756.91
2022-11-26T02:52:49.447Z,100762.16
2022-11-26T02:55:20.459Z,100769.19
2022-11-26T02:57:50.562Z,100769.09
2022-11-26T03:00:17.924Z,100766.56
2022-11-26T03:03:00.315Z,100765.53
2022-11-26T03:05:31.072Z,100778.44
2022-11-26T03:07:58.588Z,100769.91
2022-11-26T03:10:28.274Z,100759.03
2022-11-26T03:12:55.990Z,100768.97
2022-11-26T03:15:23.700Z,100771.59
2022-11-26T03:17:51.052Z,100774.12
2022-11-26T03:20:18.556Z,100779.37
2022-11-26T03:22:45.718Z,100763.84
2022-11-26T03:25:12.585Z,100780.31
2022-11-26T03:27:39.615Z,100776.22
2022-11-26T03:30:07.221Z,100783.91
2022-11-26T03:32:34.059Z,100781.28
2022-11-26T03:35:00.999Z,100761.53
2022-11-26T03:37:27.685Z,100780.53
2022-11-26T03:39:54.275Z,100773.69
2022-11-26T03:42:21.179Z,100777.06
2022-11-26T03:44:47.781Z,100770.97
2022-11-26T03:47:14.460Z,100777.06
2022-11-26T03:49:41.366Z,100784.19
2022-11-26T03:52:08.441Z,100791.03
2022-11-26T03:54:35.153Z,100788.41
2022-11-26T03:57:02.110Z,100795.34
2022-11-26T03:59:28.831Z,100766.59
2022-11-26T04:01:55.622Z,100785.56
2022-11-26T04:04:22.781Z,100768.56
2022-11-26T04:06:49.396Z,100793.31
2022-11-26T04:09:16.040Z,100787.25
2022-11-26T04:11:43.049Z,100790.59
2022-11-26T04:14:09.661Z,100782.44
2022-11-26T04:16:36.649Z,100800.97
2022-11-26T04:19:03.628Z,100790.47
2022-11-26T04:21:30.282Z,100774.78
2022-11-26T04:23:56.991Z,100799.22
2022-11-26T04:26:23.996Z,100783.38
2022-11-26T04:28:50.718Z,100806.97
2022-11-26T04:31:18.163Z,100808.75
2022-11-26T04:33:45.137Z,100801.09
2022-11-26T04:36:12.049Z,100801.84
2022-11-26T04:38:39.071Z,100804.34
2022-11-26T04:41:06.312Z,100805.19
2022-11-26T04:43:32.951Z,100798.25
2022-11-26T04:45:59.680Z,100806.87
2022-11-26T04:48:26.615Z,100806.87
2022-11-26T04:50:53.237Z,100797.84
2022-11-26T04:53:21.990Z,100815.47
2022-11-26T04:55:53.021Z,100813.78
2022-11-26T04:58:20.748Z,100820.72
2022-11-26T05:00:50.857Z,100816.41
2022-11-26T05:03:19.319Z,100823.22
2022-11-26T05:05:47.070Z,100808.84
2022-11-26T05:08:14.607Z,100821.53
2022-11-26T05:10:41.717Z,100820.09
2022-11-26T05:13:08.791Z,100810.88
2022-11-26T05:15:35.708Z,100815.50
2022-11-26T05:18:03.082Z,100845.50
2022-11-26T05:20:29.777Z,100835.88
2022-11-26T05:22:56.495Z,100849.31
2022-11-26T05:25:23.428Z,100855.50
2022-11-26T05:27:50.084Z,100852.16
2022-11-26T05:30:16.828Z,100853.94
2022-11-26T05:32:44.651Z,100858.34
2022-11-26T05:35:11.729Z,100861.81
2022-11-26T05:37:38.680Z,100868.84
2022-11-26T05:40:07.359Z,100868.97
2022-11-26T05:42:34.346Z,100868.09
2022-11-26T05:45:01.076Z,100873.38
2022-11-26T05:47:28.130Z,100865.69
2022-11-26T05:49:54.748Z,100870.84
2022-11-26T05:52:21.831Z,100873.47
2022-11-26T05:54:49.007Z,100876.97
2022-11-26T05:57:15.919Z,100878.72
2022-11-26T05:59:42.787Z,100875.25
2022-11-26T06:02:10.085Z,100881.47
2022-11-26T06:04:37.441Z,100886.72
2022-11-26T06:07:04.390Z,100886.00
2022-11-26T06:09:31.159Z,100893.03
2022-11-26T06:11:58.138Z,100892.19
2022-11-26T06:14:24.828Z,100904.38
2022-11-26T06:16:51.629Z,100899.34
2022-11-26T06:19:18.690Z,100904.38
2022-11-26T06:21:45.778Z,100885.91
2022-11-26T06:24:12.562Z,100889.25
2022-11-26T06:26:39.479Z,100899.44
2022-11-26T06:29:06.176Z,100904.38
2022-11-26T06:31:33.702Z,100890.94
2022-11-26T06:34:00.676Z,100902.47
2022-11-26T06:36:27.339Z,100907.72
2022-11-26T06:38:53.931Z,100907.59
2022-11-26T06:41:20.888Z,100906.06
2022-11-26T06:43:47.587Z,100907.50
2022-11-26T06:46:14.372Z,100906.66
2022-11-26T06:48:41.604Z,100910.66
2022-11-26T06:51:10.903Z,100922.31
2022-11-26T06:53:38.173Z,100921.37
2022-11-26T06:56:07.658Z,100921.47
2022-11-26T06:58:34.619Z,100924.09
2022-11-26T07:01:10.988Z,100916.78
2022-11-26T07:03:38.135Z,100932.72
2022-11-26T07:06:05.345Z,100919.78
2022-11-26T07:08:32.197Z,100931.87
2022-11-26T07:11:03.224Z,100930.41
2022-11-26T07:13:29.819Z,100936.28
2022-11-26T07:15:56.442Z,100921.81
2022-11-26T07:18:23.379Z,100932.00
2022-11-26T07:20:50.022Z,100934.94
2022-11-26T07:23:16.640Z,100938.06
2022-11-26T07:25:43.584Z,100941.63
2022-11-26T07:28:10.193Z,100946.78
2022-11-26T07:30:36.793Z,100937.34
2022-11-26T07:33:03.721Z,100945.13
2022-11-26T07:35:33.006Z,100933.84
2022-11-26T07:37:59.832Z,100937.25
2022-11-26T07:40:26.474Z,100947.62
2022-11-26T07:42:53.539Z,100944.16
2022-11-26T07:45:24.023Z,100935.44
2022-11-26T07:47:50.635Z,100930.72
2022-11-26T07:50:17.766Z,100942.37
2022-11-26T07:52:44.396Z,100950.03
2022-11-26T07:55:12.690Z,100944.78
2022-11-26T07:57:39.798Z,100941.22
2022-11-26T08:00:07.149Z,100939.97
2022-11-26T08:02:38.523Z,100951.53
2022-11-26T08:05:06.022Z,100956.78
2022-11-26T08:07:32.694Z,100947.00
2022-11-26T08:09:59.317Z,100959.41
2022-11-26T08:12:26.376Z,100965.59
2022-11-26T08:14:53.005Z,100964.66
2022-11-26T08:17:19.609Z,100956.22
2022-11-26T08:19:46.487Z,100968.81
2022-11-26T08:22:13.123Z,100972.31
2022-11-26T08:24:40.367Z,100968.81
2022-11-26T08:27:07.556Z,100969.47
2022-11-26T08:29:36.710Z,100963.47
2022-11-26T08:32:04.389Z,100975.44
2022-11-26T08:34:31.466Z,100970.09
2022-11-26T08:36:58.081Z,100969.88
2022-11-26T08:39:24.821Z,100974.28
2022-11-26T08:41:52.854Z,100962.84
2022-11-26T08:44:20.266Z,100984.59
2022-11-26T08:46:46.898Z,100985.41
2022-11-26T08:49:15.119Z,100981.84
2022-11-26T08:51:42.451Z,100985.19
2022-11-26T08:54:09.957Z,100990.34
2022-11-26T08:56:37.020Z,100987.59
2022-11-26T08:59:04.060Z,100974.06
2022-11-26T09:01:32.936Z,100987.50
2022-11-26T09:04:05.462Z,100991.94
2022-11-26T09:06:34.017Z,100992.97
2022-11-26T09:09:14.223Z,100968.81
2022-11-26T09:11:44.199Z,100963.56
2022-11-26T09:14:12.008Z,100972.94
2022-11-26T09:16:39.500Z,100992.31
2022-11-26T09:19:07.378Z,100982.47
2022-11-26T09:21:35.609Z,100988.97
2022-11-26T09:24:02.818Z,101000.19
2022-11-26T09:26:31.747Z,100991.50
2022-11-26T09:28:59.234Z,100999.37
2022-11-26T09:31:26.323Z,101002.00
2022-11-26T09:33:56.366Z,100999.37
2022-11-26T09:36:23.281Z,101010.59
2022-11-26T09:38:53.860Z,101011.56
2022-11-26T09:41:41.000Z,101011.69
2022-11-26T09:44:10.699Z,101012.50
2022-11-26T09:47:16.052Z,101008.19
2022-11-26T09:49:46.798Z,101020.50
2022-11-26T09:52:18.059Z,101018.91
2022-11-26T09:54:46.951Z,101024.94
2022-11-26T09:58:03.463Z,101008.00
2022-11-26T10:00:42.024Z,101029.09
2022-11-26T10:03:18.234Z,101026.47
2022-11-26T10:06:10.266Z,101027.44
2022-11-26T10:08:42.991Z,101029.31
2022-11-26T10:11:49.378Z,101027.34
2022-11-26T10:14:43.400Z,101039.41
2022-11-26T10:17:16.050Z,101040.87
2022-11-26T10:20:00.967Z,101027.34
2022-11-26T10:22:34.390Z,101037.19
2022-11-26T10:25:03.655Z,101046.97
2022-11-26T10:27:33.943Z,101053.78
2022-11-26T10:30:24.534Z,101027.44
2022-11-26T10:32:52.997Z,101052.97
2022-11-26T10:35:25.247Z,101052.75
2022-11-26T10:37:52.427Z,101049.28
2022-11-26T10:40:25.615Z,101047.37
2022-11-26T10:43:09.895Z,101061.47
2022-11-26T10:45:42.222Z,101058.13
2022-11-26T10:48:19.138Z,101062.53
2022-11-26T10:51:25.094Z,101065.06
2022-11-26T10:53:59.743Z,101059.81
2022-11-26T10:56:35.897Z,101067.69
2022-11-26T10:59:07.483Z,101061.47
2022-11-26T11:01:39.540Z,101061.56
2022-11-26T11:04:39.411Z,101069.47
2022-11-26T11:07:11.803Z,101066.00
2022-11-26T11:09:39.042Z,101071.97
2022-11-26T11:12:18.660Z,101078.94
2022-11-26T11:14:47.438Z,101071.97
2022-11-26T11:17:30.414Z,101078.09
2022-11-26T11:20:01.206Z,101081.66
2022-11-26T11:22:28.234Z,101089.66
2022-11-26T11:24:58.965Z,101082.69
2022-11-26T11:27:53.975Z,101092.28
2022-11-26T11:30:26.108Z,101086.09
2022-11-26T11:32:57.716Z,101092.28
2022-11-26T11:35:26.983Z,101089.66
2022-11-26T11:37:56.040Z,101094.19
2022-11-26T11:40:27.487Z,101094.25
2022-11-26T11:43:02.585Z,101081.97
2022-11-26T11:45:42.281Z,101098.06
2022-11-26T11:48:18.502Z,101106.06
2022-11-26T11:50:55.573Z,101103.62
2022-11-26T11:53:41.471Z,101112.34
2022-11-26T11:56:31.999Z,101108.13
2022-11-26T11:59:14.048Z,101113.50
2022-11-26T12:02:00.849Z,101115.28
2022-11-26T12:05:02.377Z,101114.47
2022-11-26T12:07:38.312Z,101107.28
2022-11-26T12:10:05.291Z,101116.34
2022-11-26T12:12:36.779Z,101105.63
2022-11-26T12:15:15.717Z,101098.59
2022-11-26T12:17:53.700Z,101117.19
2022-11-26T12:20:55.661Z,101123.28
2022-11-26T12:23:54.828Z,101117.19
2022-11-26T12:26:32.890Z,101122.47
2022-11-26T12:29:06.321Z,101120.75
2022-11-26T12:31:40.360Z,101122.56
2022-11-26T12:34:19.721Z,101119.06
2022-11-26T12:37:01.515Z,101112.75
2022-11-26T12:39:54.115Z,101105.84
2022-11-26T12:42:42.146Z,101128.97
2022-11-26T12:45:20.838Z,101128.97
2022-11-26T12:48:00.165Z,101126.44
2022-11-26T12:50:39.961Z,101130.00
2022-11-26T12:53:22.003Z,101108.03
2022-11-26T12:55:58.827Z,101134.41
2022-11-26T12:58:46.259Z,101126.00
2022-11-26T13:01:13.733Z,101132.09
2022-11-26T13:03:41.259Z,101145.97
2022-11-26T13:06:17.186Z,101153.13
2022-11-26T13:09:09.271Z,101160.03
2022-11-26T13:11:57.372Z,101161.09
2022-11-26T13:14:36.783Z,101162.13
2022-11-26T13:17:12.357Z,101170.94
2022-11-26T13:19:45.013Z,101162.25
2022-11-26T13:22:45.289Z,101169.28
2022-11-26T13:25:36.049Z,101169.50
2022-11-26T13:28:33.870Z,101150.97
2022-11-26T13:31:44.296Z,101169.50
2022-11-26T13:34:21.789Z,101164.34
2022-11-26T13:37:06.779Z,101174.94
2022-11-26T13:39:48.672Z,101167.28
2022-11-26T13:42:21.692Z,101153.91
2022-11-26T13:44:51.782Z,101177.03
2022-11-26T13:47:29.579Z,101159.97
2022-11-26T13:50:19.488Z,101184.25
2022-11-26T13:52:57.126Z,101140.59
2022-11-26T13:55:36.803Z,101181.94
2022-11-26T13:58:06.222Z,101172.25
2022-11-26T14:00:35.607Z,101193.56
2022-11-26T14:03:03.579Z,101196.94
2022-11-26T14:05:48.825Z,101193.47
2022-11-26T14:08:39.528Z,101200.53
2022-11-26T14:11:06.845Z,101203.16
2022-11-26T14:13:34.238Z,101201.34
2022-11-26T14:16:08.033Z,101202.28
2022-11-26T14:18:53.332Z,101187.91
2022-11-26T14:21:21.113Z,101193.78
2022-11-26T14:23:50.546Z,101207.34
2022-11-26T14:26:34.919Z,101190.44
2022-11-26T14:29:10.311Z,101206.41
2022-11-26T14:31:51.330Z,101209.87
2022-11-26T14:34:28.567Z,101214.19
2022-11-26T14:36:57.366Z,101205.97
2022-11-26T14:39:26.197Z,101202.28
2022-11-26T14:42:03.844Z,101219.44
2022-11-26T14:44:32.901Z,101226.37
2022-11-26T14:47:08.142Z,101215.88
2022-11-26T14:49:43.799Z,101221.84
2022-11-26T14:52:17.774Z,101224.47
2022-11-26T14:54:47.547Z,101222.78
2022-11-26T14:57:19.399Z,101221.13
2022-11-26T15:00:01.500Z,101235.00
2022-11-26T15:02:29.860Z,101231.62
2022-11-26T15:05:13.920Z,101236.69
2022-11-26T15:07:40.859Z,101244.47
2022-11-26T15:10:20.340Z,101245.38
2022-11-26T15:12:50.390Z,101253.28
2022-11-26T15:15:24.495Z,101254.09
2022-11-26T15:17:58.553Z,101241.06
2022-11-26T15:20:26.322Z,101244.47
2022-11-26T15:22:55.944Z,101249.72
2022-11-26T15:25:32.189Z,101244.56
2022-11-26T15:28:00.363Z,101241.94
2022-11-26T15:30:31.498Z,101225.81
2022-11-26T15:33:12.587Z,101239.22
2022-11-26T15:35:41.012Z,101238.34
2022-11-26T15:38:15.151Z,101238.34
2022-11-26T15:41:03.460Z,101233.09
2022-11-26T15:43:46.317Z,101227.50
2022-11-26T15:46:30.537Z,101244.34
2022-11-26T15:49:09.868Z,101235.62
2022-11-26T15:51:49.473Z,101242.66
2022-11-26T15:54:24.238Z,101248.84
2022-11-26T15:56:57.875Z,101245.50
2022-11-26T15:59:27.458Z,101254.31
2022-11-26T16:01:54.922Z,101253.28
2022-11-26T16:04:39.942Z,101240.84
2022-11-26T16:07:14.492Z,101255.91
2022-11-26T16:09:43.497Z,101260.22
2022-11-26T16:12:29.129Z,101265.47
2022-11-26T16:15:21.245Z,101261.25
2022-11-26T16:17:49.055Z,101261.25
2022-11-26T16:20:22.581Z,101277.75
2022-11-26T16:22:52.223Z,101266.50
2022-11-26T16:25:27.028Z,101269.84
2022-11-26T17:14:35.559Z,101280.87
2022-11-26T17:17:03.068Z,101280.87
2022-11-26T17:19:29.811Z,101286.78
2022-11-26T17:21:56.502Z,101289.50
2022-11-26T17:24:27.038Z,101293.06
2022-11-26T17:26:58.861Z,101286.41
2022-11-26T17:29:26.033Z,101284.66
2022-11-26T17:31:52.908Z,101294.41
2022-11-26T17:34:19.557Z,101291.03
2022-11-26T17:36:48.379Z,101296.38
2022-11-26T17:39:18.307Z,101300.81
2022-11-26T17:41:44.908Z,101293.03
2022-11-26T17:44:14.767Z,101286.09
2022-11-26T17:47:09.479Z,101298.47
2022-11-26T17:49:35.481Z,101300.25
2022-11-26T17:52:03.968Z,101292.47
2022-11-26T17:54:33.421Z,101294.25
2022-11-26T17:57:01.703Z,101277.28
2022-11-26T18:01:55.421Z,101296.97
2022-11-26T18:04:22.481Z,101304.97
2022-11-26T18:06:52.114Z,101299.81
2022-11-26T18:09:18.893Z,101289.78
2022-11-26T18:11:50.200Z,101299.22
2022-11-26T18:14:17.974Z,101304.28
2022-11-26T18:16:45.690Z,101302.53
2022-11-26T18:19:15.239Z,101305.16
2022-11-26T18:21:41.958Z,101302.63
2022-11-26T18:24:10.467Z,101307.87
2022-11-26T18:26:37.379Z,101301.87
2022-11-26T18:29:04.393Z,101306.19
2022-11-26T18:31:36.672Z,101297.47
2022-11-26T18:34:06.868Z,101305.34
2022-11-26T18:36:33.979Z,101312.25
2022-11-26T18:39:03.756Z,101313.22
2022-11-26T18:41:30.654Z,101304.78
2022-11-26T18:43:58.427Z,101321.00
2022-11-26T18:46:25.275Z,101316.69
2022-11-26T18:48:52.261Z,101327.28
2022-11-26T18:51:19.365Z,101313.72
2022-11-26T18:53:46.222Z,101306.12
2022-11-26T18:56:19.879Z,101321.28
2022-11-26T18:58:47.284Z,101322.13
2022-11-26T19:01:32.322Z,101316.03
2022-11-26T19:04:00.777Z,101323.81
2022-11-26T19:06:32.140Z,101335.16
2022-11-26T19:09:21.967Z,101332.00
2022-11-26T19:11:54.350Z,101342.22
2022-11-26T19:14:21.655Z,101284.94
2022-11-26T19:16:52.070Z,101326.94
2022-11-26T19:19:19.633Z,101337.06
2022-11-26T19:21:50.507Z,101338.91
2022-11-26T19:24:17.341Z,101337.06
2022-11-26T19:26:47.098Z,101351.00
2022-11-26T19:29:16.418Z,101351.84
2022-11-26T19:31:43.532Z,101348.38
2022-11-26T19:34:14.287Z,101358.87
2022-11-26T19:36:42.526Z,101364.97
2022-11-26T19:39:10.823Z,101372.84
2022-11-26T19:41:37.934Z,101372.84
2022-11-26T19:44:07.337Z,101378.00
2022-11-26T19:46:39.378Z,101373.63
2022-11-26T19:49:17.253Z,101373.63
2022-11-26T19:51:44.303Z,101352.41
2022-11-26T19:54:11.428Z,101369.19
2022-11-26T19:56:38.911Z,101375.38
2022-11-26T19:59:05.722Z,101369.28
2022-11-26T20:01:34.695Z,101369.28
2022-11-26T20:04:06.114Z,101372.75
2022-11-26T20:06:36.959Z,101373.72
2022-11-26T20:09:05.775Z,101370.22
2022-11-26T20:11:37.521Z,101382.41
2022-11-26T20:14:10.881Z,101369.88
2022-11-26T20:16:40.136Z,101377.38
2022-11-26T20:19:08.327Z,101385.03
2022-11-26T20:21:38.311Z,101392.81
2022-11-26T20:24:14.965Z,101393.75
2022-11-26T20:26:45.546Z,101392.94
2022-11-26T20:29:14.317Z,101381.69
2022-11-26T20:31:46.024Z,101381.50
2022-11-26T20:34:16.242Z,101362.19
2022-11-26T20:36:44.762Z,101383.25
2022-11-26T20:39:18.323Z,101385.16
2022-11-26T20:41:45.959Z,101382.41
2022-11-26T20:44:14.101Z,101384.12
2022-11-26T20:46:41.147Z,101382.41
2022-11-26T20:49:10.881Z,101389.37
2022-11-26T20:51:37.642Z,101388.50
2022-11-26T20:54:04.707Z,101380.72
2022-11-26T20:56:31.924Z,101387.78
2022-11-26T20:58:58.991Z,101382.63
2022-11-26T21:01:28.691Z,101392.19
2022-11-26T21:03:56.234Z,101396.47
2022-11-26T21:06:29.555Z,101397.44
2022-11-26T21:09:01.697Z,101391.41
2022-11-26T21:11:29.051Z,101390.59
2022-11-26T21:13:58.110Z,101392.47
2022-11-26T21:16:25.155Z,101398.56
2022-11-26T21:18:55.400Z,101386.00
2022-11-26T21:21:23.699Z,101393.88
2022-11-26T21:23:51.065Z,101404.00
2022-11-26T21:26:20.876Z,101400.63
2022-11-26T21:28:56.163Z,101399.69
2022-11-26T21:31:24.323Z,101405.03
2022-11-26T21:34:11.428Z,101413.84
2022-11-26T21:36:38.478Z,101413.09
2022-11-26T21:39:05.818Z,101395.19
2022-11-26T21:41:33.831Z,101410.47
2022-11-26T21:44:03.755Z,101424.34
2022-11-26T21:46:37.614Z,101415.63
2022-11-26T21:49:06.227Z,101417.59
2022-11-26T21:51:32.959Z,101406.69
2022-11-26T21:53:59.612Z,101418.53
2022-11-26T21:56:29.279Z,101420.31
2022-11-26T21:58:57.395Z,101419.53
2022-11-26T22:01:28.582Z,101406.41
2022-11-26T22:03:59.215Z,101398.19
2022-11-26T22:06:26.627Z,101411.66
2022-11-26T22:08:53.380Z,101399.87
2022-11-26T22:11:29.337Z,101416.09
2022-11-26T22:13:56.344Z,101409.13
2022-11-26T22:16:25.968Z,101412.63
2022-11-26T22:18:53.705Z,101417.09
2022-11-26T22:21:25.214Z,101401.81
2022-11-26T22:23:53.148Z,101422.34
2022-11-26T22:26:20.492Z,101417.97
2022-11-26T22:28:49.607Z,101412.72
2022-11-26T22:31:31.655Z,101413.56
2022-11-26T22:34:05.026Z,101415.34
2022-11-26T22:36:32.789Z,101410.94
2022-11-26T22:39:00.144Z,101394.03
2022-11-26T22:41:26.892Z,101409.22
2022-11-26T22:43:54.121Z,101402.31
2022-11-26T22:46:23.459Z,101403.16
2022-11-26T22:48:55.991Z,101407.56
2022-11-26T22:51:23.702Z,101414.66
2022-11-26T22:53:51.993Z,101410.28
2022-11-26T22:56:18.987Z,101412.91
2022-11-26T22:58:46.502Z,101413.00
2022-11-26T23:01:20.671Z,101413.09
2022-11-26T23:03:48.008Z,101406.53
2022-11-26T23:06:16.128Z,101412.03
2022-11-26T23:08:43.884Z,101427.78
2022-11-26T23:11:19.601Z,101418.16
2022-11-26T23:13:47.619Z,101430.41
2022-11-26T23:16:15.179Z,101409.97
2022-11-26T23:18:42.437Z,101425.16
2022-11-26T23:21:16.105Z,101403.81
2022-11-26T23:23:43.057Z,101419.81
2022-11-26T23:26:13.271Z,101420.69
2022-11-26T23:28:42.329Z,101410.75
2022-11-26T23:31:18.292Z,101402.09
2022-11-26T23:33:45.408Z,101420.78
2022-11-26T23:36:13.292Z,101426.87
2022-11-26T23:38:42.215Z,101420.78
2022-11-26T23:41:09.328Z,101418.91
2022-11-26T23:43:38.052Z,101417.28
2022-11-26T23:46:16.307Z,101403.81
2022-11-26T23:48:43.896Z,101416.47
2022-11-26T23:51:13.788Z,101420.00
2022-11-26T23:53:42.462Z,101425.25
2022-11-26T23:56:14.966Z,101427.88
2022-11-26T23:58:41.622Z,101422.72
